sensor_id;sensor_type;location;lat;lon;timestamp;P1;durP1;ratioP1;P2;durP2;ratioP2
6203;SDS011;3135;42.602;23.468;2023-04-25T00:01:17;2.03;;;1.83;;
6203;SDS011;3135;42.602;23.468;2023-04-25T00:03:43;2.33;;;1.60;;
6203;SDS011;3135;42.602;23.468;2023-04-25T00:06:10;2.50;;;2.30;;
6203;SDS011;3135;42.602;23.468;2023-04-25T00:08:37;3.25;;;2.30;;
6203;SDS011;3135;42.602;23.468;2023-04-25T00:11:03;3.67;;;2.28;;
6203;SDS011;3135;42.602;23.468;2023-04-25T00:13:29;3.30;;;2.35;;
6203;SDS011;3135;42.602;23.468;2023-04-25T00:15:54;3.03;;;2.53;;
6203;SDS011;3135;42.602;23.468;2023-04-25T00:18:21;3.55;;;2.80;;
6203;SDS011;3135;42.602;23.468;2023-04-25T00:20:47;4.40;;;2.77;;
6203;SDS011;3135;42.602;23.468;2023-04-25T00:23:13;3.30;;;2.97;;
6203;SDS011;3135;42.602;23.468;2023-04-25T00:25:45;5.88;;;3.50;;
6203;SDS011;3135;42.602;23.468;2023-04-25T00:28:12;6.83;;;4.03;;
6203;SDS011;3135;42.602;23.468;2023-04-25T00:30:38;5.57;;;3.80;;
6203;SDS011;3135;42.602;23.468;2023-04-25T00:33:05;4.80;;;3.40;;
6203;SDS011;3135;42.602;23.468;2023-04-25T00:35:31;4.93;;;3.70;;
6203;SDS011;3135;42.602;23.468;2023-04-25T00:37:56;6.03;;;4.40;;
6203;SDS011;3135;42.602;23.468;2023-04-25T00:40:22;6.40;;;4.17;;
6203;SDS011;3135;42.602;23.468;2023-04-25T00:42:47;7.10;;;4.20;;
6203;SDS011;3135;42.602;23.468;2023-04-25T00:45:13;6.45;;;4.18;;
6203;SDS011;3135;42.602;23.468;2023-04-25T00:47:40;5.72;;;3.90;;
6203;SDS011;3135;42.602;23.468;2023-04-25T00:50:06;5.80;;;4.13;;
6203;SDS011;3135;42.602;23.468;2023-04-25T00:52:33;4.97;;;3.63;;
6203;SDS011;3135;42.602;23.468;2023-04-25T00:54:59;5.13;;;3.90;;
6203;SDS011;3135;42.602;23.468;2023-04-25T00:57:24;4.90;;;3.60;;
6203;SDS011;3135;42.602;23.468;2023-04-25T00:59:51;4.73;;;3.80;;
6203;SDS011;3135;42.602;23.468;2023-04-25T01:02:18;5.70;;;4.18;;
6203;SDS011;3135;42.602;23.468;2023-04-25T01:04:45;5.32;;;3.85;;
6203;SDS011;3135;42.602;23.468;2023-04-25T01:07:11;5.00;;;3.87;;
6203;SDS011;3135;42.602;23.468;2023-04-25T01:09:36;4.00;;;3.30;;
6203;SDS011;3135;42.602;23.468;2023-04-25T01:12:02;3.77;;;3.30;;
6203;SDS011;3135;42.602;23.468;2023-04-25T01:14:27;4.70;;;2.97;;
6203;SDS011;3135;42.602;23.468;2023-04-25T01:16:54;3.40;;;2.97;;
6203;SDS011;3135;42.602;23.468;2023-04-25T01:19:20;3.33;;;3.00;;
6203;SDS011;3135;42.602;23.468;2023-04-25T01:21:45;4.43;;;3.50;;
6203;SDS011;3135;42.602;23.468;2023-04-25T01:24:12;3.63;;;3.30;;
6203;SDS011;3135;42.602;23.468;2023-04-25T01:26:37;3.30;;;3.00;;
6203;SDS011;3135;42.602;23.468;2023-04-25T01:29:05;4.20;;;3.28;;
6203;SDS011;3135;42.602;23.468;2023-04-25T01:31:32;4.87;;;3.33;;
6203;SDS011;3135;42.602;23.468;2023-04-25T01:33:59;3.47;;;2.90;;
6203;SDS011;3135;42.602;23.468;2023-04-25T01:36:25;3.55;;;3.08;;
6203;SDS011;3135;42.602;23.468;2023-04-25T01:38:52;3.60;;;3.30;;
6203;SDS011;3135;42.602;23.468;2023-04-25T01:41:17;3.50;;;3.20;;
6203;SDS011;3135;42.602;23.468;2023-04-25T01:43:44;3.20;;;2.90;;
6203;SDS011;3135;42.602;23.468;2023-04-25T01:46:10;4.20;;;3.20;;
6203;SDS011;3135;42.602;23.468;2023-04-25T01:48:36;4.80;;;3.08;;
6203;SDS011;3135;42.602;23.468;2023-04-25T01:51:02;4.50;;;3.03;;
6203;SDS011;3135;42.602;23.468;2023-04-25T01:53:28;3.38;;;2.42;;
6203;SDS011;3135;42.602;23.468;2023-04-25T01:55:53;2.95;;;2.30;;
6203;SDS011;3135;42.602;23.468;2023-04-25T01:58:19;2.53;;;2.30;;
6203;SDS011;3135;42.602;23.468;2023-04-25T02:00:44;2.08;;;1.88;;
6203;SDS011;3135;42.602;23.468;2023-04-25T02:03:11;2.23;;;1.80;;
6203;SDS011;3135;42.602;23.468;2023-04-25T02:05:37;2.70;;;2.10;;
6203;SDS011;3135;42.602;23.468;2023-04-25T02:08:04;2.22;;;2.03;;
6203;SDS011;3135;42.602;23.468;2023-04-25T02:10:31;2.35;;;2.10;;
6203;SDS011;3135;42.602;23.468;2023-04-25T02:12:57;3.10;;;2.30;;
6203;SDS011;3135;42.602;23.468;2023-04-25T02:15:23;2.60;;;2.40;;
6203;SDS011;3135;42.602;23.468;2023-04-25T02:17:48;2.92;;;2.20;;
6203;SDS011;3135;42.602;23.468;2023-04-25T02:20:14;4.00;;;2.70;;
6203;SDS011;3135;42.602;23.468;2023-04-25T02:22:41;2.70;;;2.35;;
6203;SDS011;3135;42.602;23.468;2023-04-25T02:25:07;4.32;;;2.40;;
6203;SDS011;3135;42.602;23.468;2023-04-25T02:27:32;4.18;;;2.50;;
6203;SDS011;3135;42.602;23.468;2023-04-25T02:29:58;3.00;;;2.60;;
6203;SDS011;3135;42.602;23.468;2023-04-25T02:32:23;3.23;;;2.83;;
6203;SDS011;3135;42.602;23.468;2023-04-25T02:34:49;3.45;;;2.53;;
6203;SDS011;3135;42.602;23.468;2023-04-25T02:37:14;4.13;;;2.73;;
6203;SDS011;3135;42.602;23.468;2023-04-25T02:39:40;3.13;;;2.70;;
6203;SDS011;3135;42.602;23.468;2023-04-25T02:42:05;3.88;;;2.70;;
6203;SDS011;3135;42.602;23.468;2023-04-25T02:44:30;3.80;;;2.57;;
6203;SDS011;3135;42.602;23.468;2023-04-25T02:46:56;3.50;;;2.70;;
6203;SDS011;3135;42.602;23.468;2023-04-25T02:49:21;3.80;;;2.90;;
6203;SDS011;3135;42.602;23.468;2023-04-25T02:51:47;4.10;;;2.77;;
6203;SDS011;3135;42.602;23.468;2023-04-25T02:59:56;3.17;;;2.53;;
6203;SDS011;3135;42.602;23.468;2023-04-25T03:02:21;3.30;;;2.70;;
6203;SDS011;3135;42.602;23.468;2023-04-25T03:04:47;4.10;;;2.93;;
6203;SDS011;3135;42.602;23.468;2023-04-25T03:07:14;4.07;;;3.30;;
6203;SDS011;3135;42.602;23.468;2023-04-25T03:09:39;3.88;;;3.30;;
6203;SDS011;3135;42.602;23.468;2023-04-25T03:12:04;5.17;;;3.27;;
6203;SDS011;3135;42.602;23.468;2023-04-25T03:14:30;4.70;;;3.50;;
6203;SDS011;3135;42.602;23.468;2023-04-25T03:16:55;3.43;;;3.13;;
6203;SDS011;3135;42.602;23.468;2023-04-25T03:19:21;4.10;;;3.30;;
6203;SDS011;3135;42.602;23.468;2023-04-25T03:21:46;7.53;;;4.20;;
6203;SDS011;3135;42.602;23.468;2023-04-25T03:24:12;4.40;;;3.43;;
6203;SDS011;3135;42.602;23.468;2023-04-25T03:26:38;5.27;;;3.47;;
6203;SDS011;3135;42.602;23.468;2023-04-25T03:29:03;4.63;;;3.80;;
6203;SDS011;3135;42.602;23.468;2023-04-25T03:31:29;5.13;;;3.60;;
6203;SDS011;3135;42.602;23.468;2023-04-25T03:33:55;3.95;;;3.50;;
6203;SDS011;3135;42.602;23.468;2023-04-25T03:36:20;4.67;;;3.47;;
6203;SDS011;3135;42.602;23.468;2023-04-25T03:38:46;4.50;;;3.90;;
6203;SDS011;3135;42.602;23.468;2023-04-25T03:41:13;4.53;;;3.55;;
6203;SDS011;3135;42.602;23.468;2023-04-25T03:43:38;3.73;;;3.40;;
6203;SDS011;3135;42.602;23.468;2023-04-25T03:46:04;4.70;;;3.63;;
6203;SDS011;3135;42.602;23.468;2023-04-25T03:48:29;5.17;;;3.83;;
6203;SDS011;3135;42.602;23.468;2023-04-25T03:50:55;6.53;;;3.70;;
6203;SDS011;3135;42.602;23.468;2023-04-25T03:53:20;6.20;;;4.40;;
6203;SDS011;3135;42.602;23.468;2023-04-25T04:22:44;22.95;;;9.48;;
6203;SDS011;3135;42.602;23.468;2023-04-25T04:25:10;16.53;;;8.77;;
6203;SDS011;3135;42.602;23.468;2023-04-25T04:27:36;13.10;;;6.22;;
6203;SDS011;3135;42.602;23.468;2023-04-25T04:30:03;6.22;;;4.65;;
6203;SDS011;3135;42.602;23.468;2023-04-25T04:32:29;8.43;;;5.45;;
6203;SDS011;3135;42.602;23.468;2023-04-25T04:34:55;11.53;;;6.20;;
6203;SDS011;3135;42.602;23.468;2023-04-25T04:37:21;9.83;;;5.47;;
6203;SDS011;3135;42.602;23.468;2023-04-25T04:39:46;10.13;;;4.65;;
6203;SDS011;3135;42.602;23.468;2023-04-25T04:42:12;7.03;;;4.45;;
6203;SDS011;3135;42.602;23.468;2023-04-25T04:44:38;7.60;;;4.50;;
6203;SDS011;3135;42.602;23.468;2023-04-25T04:47:04;9.03;;;4.83;;
6203;SDS011;3135;42.602;23.468;2023-04-25T04:49:31;7.93;;;4.38;;
6203;SDS011;3135;42.602;23.468;2023-04-25T04:51:57;10.13;;;5.88;;
6203;SDS011;3135;42.602;23.468;2023-04-25T04:54:24;6.97;;;4.10;;
6203;SDS011;3135;42.602;23.468;2023-04-25T04:56:50;7.35;;;4.53;;
6203;SDS011;3135;42.602;23.468;2023-04-25T04:59:17;8.35;;;4.90;;
6203;SDS011;3135;42.602;23.468;2023-04-25T05:01:42;13.47;;;7.27;;
6203;SDS011;3135;42.602;23.468;2023-04-25T05:04:08;11.60;;;6.27;;
6203;SDS011;3135;42.602;23.468;2023-04-25T05:06:33;12.45;;;6.15;;
6203;SDS011;3135;42.602;23.468;2023-04-25T05:08:58;12.75;;;6.50;;
6203;SDS011;3135;42.602;23.468;2023-04-25T05:11:24;10.82;;;6.10;;
6203;SDS011;3135;42.602;23.468;2023-04-25T05:13:53;10.07;;;5.73;;
6203;SDS011;3135;42.602;23.468;2023-04-25T05:16:19;10.43;;;5.95;;
6203;SDS011;3135;42.602;23.468;2023-04-25T05:18:45;12.15;;;6.57;;
6203;SDS011;3135;42.602;23.468;2023-04-25T05:21:11;12.13;;;6.45;;
6203;SDS011;3135;42.602;23.468;2023-04-25T05:23:36;12.13;;;6.57;;
6203;SDS011;3135;42.602;23.468;2023-04-25T05:26:02;10.60;;;5.70;;
6203;SDS011;3135;42.602;23.468;2023-04-25T05:28:27;15.03;;;7.13;;
6203;SDS011;3135;42.602;23.468;2023-04-25T05:30:53;12.20;;;6.80;;
6203;SDS011;3135;42.602;23.468;2023-04-25T05:33:18;12.37;;;6.17;;
6203;SDS011;3135;42.602;23.468;2023-04-25T05:35:44;8.55;;;5.65;;
6203;SDS011;3135;42.602;23.468;2023-04-25T05:38:10;11.47;;;6.27;;
6203;SDS011;3135;42.602;23.468;2023-04-25T05:40:35;9.35;;;5.80;;
6203;SDS011;3135;42.602;23.468;2023-04-25T05:43:01;8.57;;;4.75;;
6203;SDS011;3135;42.602;23.468;2023-04-25T05:45:26;9.40;;;4.97;;
6203;SDS011;3135;42.602;23.468;2023-04-25T05:47:52;6.18;;;4.53;;
6203;SDS011;3135;42.602;23.468;2023-04-25T05:50:17;7.10;;;4.82;;
6203;SDS011;3135;42.602;23.468;2023-04-25T05:52:43;8.25;;;5.03;;
6203;SDS011;3135;42.602;23.468;2023-04-25T05:55:08;8.73;;;5.10;;
6203;SDS011;3135;42.602;23.468;2023-04-25T05:57:34;7.70;;;5.00;;
6203;SDS011;3135;42.602;23.468;2023-04-25T06:00:00;7.88;;;4.90;;
6203;SDS011;3135;42.602;23.468;2023-04-25T06:02:25;9.60;;;5.67;;
6203;SDS011;3135;42.602;23.468;2023-04-25T06:04:51;12.10;;;6.07;;
6203;SDS011;3135;42.602;23.468;2023-04-25T06:07:17;12.25;;;6.13;;
6203;SDS011;3135;42.602;23.468;2023-04-25T06:09:44;18.27;;;8.93;;
6203;SDS011;3135;42.602;23.468;2023-04-25T06:12:09;14.43;;;7.10;;
6203;SDS011;3135;42.602;23.468;2023-04-25T06:14:35;34.23;;;8.33;;
6203;SDS011;3135;42.602;23.468;2023-04-25T06:17:01;20.67;;;7.23;;
6203;SDS011;3135;42.602;23.468;2023-04-25T06:19:33;9.32;;;5.65;;
6203;SDS011;3135;42.602;23.468;2023-04-25T06:22:00;10.52;;;5.40;;
6203;SDS011;3135;42.602;23.468;2023-04-25T06:24:26;9.88;;;5.18;;
6203;SDS011;3135;42.602;23.468;2023-04-25T06:26:51;7.10;;;4.50;;
6203;SDS011;3135;42.602;23.468;2023-04-25T06:29:17;20.92;;;11.40;;
6203;SDS011;3135;42.602;23.468;2023-04-25T06:31:43;13.02;;;7.68;;
6203;SDS011;3135;42.602;23.468;2023-04-25T06:34:09;7.63;;;4.77;;
6203;SDS011;3135;42.602;23.468;2023-04-25T06:36:34;8.13;;;4.87;;
6203;SDS011;3135;42.602;23.468;2023-04-25T06:39:00;8.10;;;4.83;;
6203;SDS011;3135;42.602;23.468;2023-04-25T06:41:25;8.27;;;4.90;;
6203;SDS011;3135;42.602;23.468;2023-04-25T06:43:50;9.70;;;5.90;;
6203;SDS011;3135;42.602;23.468;2023-04-25T06:46:16;14.10;;;6.70;;
6203;SDS011;3135;42.602;23.468;2023-04-25T06:48:41;11.07;;;6.50;;
6203;SDS011;3135;42.602;23.468;2023-04-25T06:51:07;14.75;;;8.10;;
6203;SDS011;3135;42.602;23.468;2023-04-25T06:53:32;13.98;;;7.88;;
6203;SDS011;3135;42.602;23.468;2023-04-25T06:55:58;11.60;;;6.70;;
6203;SDS011;3135;42.602;23.468;2023-04-25T06:58:23;10.47;;;6.30;;
6203;SDS011;3135;42.602;23.468;2023-04-25T07:00:49;9.00;;;5.60;;
6203;SDS011;3135;42.602;23.468;2023-04-25T07:03:14;10.37;;;5.77;;
6203;SDS011;3135;42.602;23.468;2023-04-25T07:05:40;9.13;;;6.17;;
6203;SDS011;3135;42.602;23.468;2023-04-25T07:08:05;5.40;;;4.13;;
6203;SDS011;3135;42.602;23.468;2023-04-25T07:10:30;5.27;;;4.20;;
6203;SDS011;3135;42.602;23.468;2023-04-25T07:12:56;6.17;;;3.87;;
6203;SDS011;3135;42.602;23.468;2023-04-25T07:15:21;5.80;;;4.50;;
6203;SDS011;3135;42.602;23.468;2023-04-25T07:17:47;5.50;;;4.50;;
6203;SDS011;3135;42.602;23.468;2023-04-25T07:20:12;4.68;;;3.58;;
6203;SDS011;3135;42.602;23.468;2023-04-25T07:22:38;4.57;;;3.65;;
6203;SDS011;3135;42.602;23.468;2023-04-25T07:25:04;7.67;;;4.20;;
6203;SDS011;3135;42.602;23.468;2023-04-25T07:27:30;4.70;;;3.10;;
6203;SDS011;3135;42.602;23.468;2023-04-25T07:29:55;5.90;;;3.85;;
6203;SDS011;3135;42.602;23.468;2023-04-25T07:32:21;4.55;;;2.97;;
6203;SDS011;3135;42.602;23.468;2023-04-25T07:34:47;3.55;;;3.10;;
6203;SDS011;3135;42.602;23.468;2023-04-25T07:37:13;3.47;;;2.87;;
6203;SDS011;3135;42.602;23.468;2023-04-25T07:39:39;4.97;;;3.42;;
6203;SDS011;3135;42.602;23.468;2023-04-25T07:42:05;6.33;;;4.23;;
6203;SDS011;3135;42.602;23.468;2023-04-25T07:44:33;4.22;;;3.42;;
6203;SDS011;3135;42.602;23.468;2023-04-25T07:47:04;5.55;;;3.78;;
6203;SDS011;3135;42.602;23.468;2023-04-25T07:49:32;5.25;;;3.75;;
6203;SDS011;3135;42.602;23.468;2023-04-25T07:51:59;4.82;;;4.07;;
6203;SDS011;3135;42.602;23.468;2023-04-25T07:54:24;7.63;;;5.23;;
6203;SDS011;3135;42.602;23.468;2023-04-25T07:56:50;8.25;;;4.88;;
6203;SDS011;3135;42.602;23.468;2023-04-25T07:59:15;6.93;;;4.60;;
6203;SDS011;3135;42.602;23.468;2023-04-25T08:01:41;5.40;;;3.77;;
6203;SDS011;3135;42.602;23.468;2023-04-25T08:04:06;4.93;;;3.50;;
6203;SDS011;3135;42.602;23.468;2023-04-25T08:06:32;4.30;;;3.67;;
6203;SDS011;3135;42.602;23.468;2023-04-25T08:08:57;6.72;;;4.40;;
6203;SDS011;3135;42.602;23.468;2023-04-25T08:11:23;8.52;;;4.47;;
6203;SDS011;3135;42.602;23.468;2023-04-25T08:13:48;6.95;;;5.18;;
6203;SDS011;3135;42.602;23.468;2023-04-25T08:16:14;5.93;;;4.35;;
6203;SDS011;3135;42.602;23.468;2023-04-25T08:18:39;9.13;;;5.30;;
6203;SDS011;3135;42.602;23.468;2023-04-25T08:21:05;9.50;;;5.70;;
6203;SDS011;3135;42.602;23.468;2023-04-25T08:23:31;13.60;;;6.90;;
6203;SDS011;3135;42.602;23.468;2023-04-25T08:25:57;10.97;;;5.03;;
6203;SDS011;3135;42.602;23.468;2023-04-25T08:28:22;6.30;;;3.77;;
6203;SDS011;3135;42.602;23.468;2023-04-25T08:30:48;5.23;;;3.47;;
6203;SDS011;3135;42.602;23.468;2023-04-25T08:33:13;4.82;;;3.65;;
6203;SDS011;3135;42.602;23.468;2023-04-25T08:35:39;5.18;;;4.03;;
6203;SDS011;3135;42.602;23.468;2023-04-25T08:38:04;7.47;;;5.10;;
6203;SDS011;3135;42.602;23.468;2023-04-25T08:40:30;5.60;;;4.55;;
6203;SDS011;3135;42.602;23.468;2023-04-25T08:43:02;4.57;;;3.60;;
6203;SDS011;3135;42.602;23.468;2023-04-25T08:45:31;5.82;;;3.80;;
6203;SDS011;3135;42.602;23.468;2023-04-25T08:47:58;3.22;;;2.60;;
6203;SDS011;3135;42.602;23.468;2023-04-25T08:50:24;3.25;;;2.50;;
6203;SDS011;3135;42.602;23.468;2023-04-25T08:52:51;2.50;;;2.20;;
6203;SDS011;3135;42.602;23.468;2023-04-25T08:55:19;2.72;;;2.20;;
6203;SDS011;3135;42.602;23.468;2023-04-25T08:57:46;1.70;;;1.60;;
6203;SDS011;3135;42.602;23.468;2023-04-25T09:00:12;2.03;;;1.77;;
6203;SDS011;3135;42.602;23.468;2023-04-25T09:02:39;2.00;;;1.90;;
6203;SDS011;3135;42.602;23.468;2023-04-25T09:05:05;3.95;;;2.67;;
6203;SDS011;3135;42.602;23.468;2023-04-25T09:07:32;3.83;;;2.78;;
6203;SDS011;3135;42.602;23.468;2023-04-25T09:09:58;2.38;;;2.17;;
6203;SDS011;3135;42.602;23.468;2023-04-25T09:12:26;3.20;;;2.35;;
6203;SDS011;3135;42.602;23.468;2023-04-25T09:15:06;4.13;;;2.30;;
6203;SDS011;3135;42.602;23.468;2023-04-25T09:17:33;3.45;;;2.53;;
6203;SDS011;3135;42.602;23.468;2023-04-25T09:20:17;2.70;;;2.23;;
6203;SDS011;3135;42.602;23.468;2023-04-25T09:22:42;2.30;;;2.10;;
6203;SDS011;3135;42.602;23.468;2023-04-25T09:25:11;2.70;;;2.08;;
6203;SDS011;3135;42.602;23.468;2023-04-25T09:27:51;2.70;;;2.33;;
6203;SDS011;3135;42.602;23.468;2023-04-25T09:30:19;4.03;;;3.63;;
6203;SDS011;3135;42.602;23.468;2023-04-25T09:33:07;3.80;;;3.13;;
6203;SDS011;3135;42.602;23.468;2023-04-25T09:35:40;3.38;;;2.70;;
6203;SDS011;3135;42.602;23.468;2023-04-25T09:38:10;2.90;;;2.70;;
6203;SDS011;3135;42.602;23.468;2023-04-25T09:40:41;2.83;;;2.63;;
6203;SDS011;3135;42.602;23.468;2023-04-25T09:43:20;3.00;;;2.78;;
6203;SDS011;3135;42.602;23.468;2023-04-25T09:45:46;3.25;;;2.80;;
6203;SDS011;3135;42.602;23.468;2023-04-25T09:48:18;3.10;;;2.57;;
6203;SDS011;3135;42.602;23.468;2023-04-25T09:50:47;3.10;;;2.80;;
6203;SDS011;3135;42.602;23.468;2023-04-25T09:53:30;2.75;;;2.55;;
6203;SDS011;3135;42.602;23.468;2023-04-25T09:55:57;3.20;;;2.53;;
6203;SDS011;3135;42.602;23.468;2023-04-25T09:58:25;3.00;;;2.47;;
6203;SDS011;3135;42.602;23.468;2023-04-25T10:00:54;2.60;;;2.30;;
6203;SDS011;3135;42.602;23.468;2023-04-25T10:03:24;2.85;;;2.60;;
6203;SDS011;3135;42.602;23.468;2023-04-25T10:05:50;1.90;;;1.40;;
6203;SDS011;3135;42.602;23.468;2023-04-25T10:08:17;1.40;;;1.25;;
6203;SDS011;3135;42.602;23.468;2023-04-25T10:10:44;1.92;;;1.40;;
6203;SDS011;3135;42.602;23.468;2023-04-25T10:13:11;4.05;;;1.50;;
6203;SDS011;3135;42.602;23.468;2023-04-25T10:15:39;1.40;;;1.30;;
6203;SDS011;3135;42.602;23.468;2023-04-25T10:18:06;1.33;;;1.23;;
6203;SDS011;3135;42.602;23.468;2023-04-25T10:20:32;2.00;;;1.30;;
6203;SDS011;3135;42.602;23.468;2023-04-25T10:22:58;1.30;;;1.00;;
6203;SDS011;3135;42.602;23.468;2023-04-25T10:25:35;1.23;;;1.13;;
6203;SDS011;3135;42.602;23.468;2023-04-25T10:28:02;0.87;;;0.87;;
6203;SDS011;3135;42.602;23.468;2023-04-25T10:30:28;1.20;;;1.10;;
6203;SDS011;3135;42.602;23.468;2023-04-25T10:32:55;1.70;;;1.20;;
6203;SDS011;3135;42.602;23.468;2023-04-25T10:35:24;1.75;;;1.38;;
6203;SDS011;3135;42.602;23.468;2023-04-25T10:38:00;1.42;;;1.17;;
6203;SDS011;3135;42.602;23.468;2023-04-25T10:40:35;1.85;;;1.75;;
6203;SDS011;3135;42.602;23.468;2023-04-25T10:45:59;2.40;;;2.20;;
6203;SDS011;3135;42.602;23.468;2023-04-25T10:48:29;2.67;;;2.28;;
6203;SDS011;3135;42.602;23.468;2023-04-25T10:51:08;2.42;;;2.25;;
6203;SDS011;3135;42.602;23.468;2023-04-25T10:53:40;2.25;;;2.05;;
6203;SDS011;3135;42.602;23.468;2023-04-25T10:56:09;2.22;;;2.13;;
6203;SDS011;3135;42.602;23.468;2023-04-25T10:58:45;2.60;;;1.90;;
6203;SDS011;3135;42.602;23.468;2023-04-25T11:01:12;1.90;;;1.60;;
6203;SDS011;3135;42.602;23.468;2023-04-25T11:03:41;3.30;;;1.60;;
6203;SDS011;3135;42.602;23.468;2023-04-25T11:06:11;1.70;;;1.10;;
6203;SDS011;3135;42.602;23.468;2023-04-25T11:09:02;1.30;;;1.20;;
6203;SDS011;3135;42.602;23.468;2023-04-25T11:11:29;1.40;;;1.30;;
6203;SDS011;3135;42.602;23.468;2023-04-25T11:13:55;1.60;;;0.80;;
6203;SDS011;3135;42.602;23.468;2023-04-25T11:16:20;1.90;;;0.80;;
6203;SDS011;3135;42.602;23.468;2023-04-25T11:18:49;1.45;;;0.73;;
6203;SDS011;3135;42.602;23.468;2023-04-25T11:21:15;0.90;;;0.90;;
6203;SDS011;3135;42.602;23.468;2023-04-25T11:23:40;1.20;;;0.70;;
6203;SDS011;3135;42.602;23.468;2023-04-25T11:26:10;0.88;;;0.70;;
6203;SDS011;3135;42.602;23.468;2023-04-25T11:28:36;3.03;;;0.80;;
6203;SDS011;3135;42.602;23.468;2023-04-25T11:31:02;2.80;;;0.70;;
6203;SDS011;3135;42.602;23.468;2023-04-25T11:33:29;0.80;;;0.80;;
6203;SDS011;3135;42.602;23.468;2023-04-25T11:35:54;1.95;;;0.70;;
6203;SDS011;3135;42.602;23.468;2023-04-25T11:38:21;1.55;;;1.00;;
6203;SDS011;3135;42.602;23.468;2023-04-25T11:40:54;3.45;;;1.40;;
6203;SDS011;3135;42.602;23.468;2023-04-25T11:43:20;1.80;;;1.50;;
6203;SDS011;3135;42.602;23.468;2023-04-25T11:45:47;1.35;;;1.20;;
6203;SDS011;3135;42.602;23.468;2023-04-25T11:48:13;2.10;;;1.20;;
6203;SDS011;3135;42.602;23.468;2023-04-25T11:50:39;1.70;;;1.17;;
6203;SDS011;3135;42.602;23.468;2023-04-25T11:53:05;2.13;;;1.20;;
6203;SDS011;3135;42.602;23.468;2023-04-25T11:55:31;3.08;;;1.25;;
6203;SDS011;3135;42.602;23.468;2023-04-25T11:57:58;1.70;;;1.10;;
6203;SDS011;3135;42.602;23.468;2023-04-25T12:00:25;1.25;;;1.17;;
6203;SDS011;3135;42.602;23.468;2023-04-25T12:02:55;1.00;;;0.90;;
6203;SDS011;3135;42.602;23.468;2023-04-25T12:05:27;2.33;;;1.15;;
6203;SDS011;3135;42.602;23.468;2023-04-25T12:07:58;1.92;;;1.73;;
6203;SDS011;3135;42.602;23.468;2023-04-25T12:10:37;2.40;;;1.30;;
6203;SDS011;3135;42.602;23.468;2023-04-25T12:13:17;3.05;;;1.35;;
6203;SDS011;3135;42.602;23.468;2023-04-25T12:15:47;2.25;;;1.30;;
6203;SDS011;3135;42.602;23.468;2023-04-25T12:18:12;2.17;;;0.98;;
6203;SDS011;3135;42.602;23.468;2023-04-25T12:20:38;1.70;;;1.00;;
6203;SDS011;3135;42.602;23.468;2023-04-25T12:23:05;2.07;;;1.00;;
6203;SDS011;3135;42.602;23.468;2023-04-25T12:25:39;1.20;;;1.00;;
6203;SDS011;3135;42.602;23.468;2023-04-25T12:28:09;2.00;;;0.80;;
6203;SDS011;3135;42.602;23.468;2023-04-25T12:33:33;1.25;;;1.00;;
6203;SDS011;3135;42.602;23.468;2023-04-25T12:35:59;1.05;;;0.80;;
6203;SDS011;3135;42.602;23.468;2023-04-25T12:38:34;1.00;;;1.00;;
6203;SDS011;3135;42.602;23.468;2023-04-25T12:41:04;0.80;;;0.80;;
6203;SDS011;3135;42.602;23.468;2023-04-25T12:43:29;0.50;;;0.50;;
6203;SDS011;3135;42.602;23.468;2023-04-25T12:45:55;1.67;;;1.40;;
6203;SDS011;3135;42.602;23.468;2023-04-25T12:48:21;0.50;;;0.30;;
6203;SDS011;3135;42.602;23.468;2023-04-25T12:50:47;0.43;;;0.40;;
6203;SDS011;3135;42.602;23.468;2023-04-25T12:53:21;1.20;;;0.63;;
6203;SDS011;3135;42.602;23.468;2023-04-25T12:55:47;1.30;;;0.60;;
6203;SDS011;3135;42.602;23.468;2023-04-25T12:58:14;0.57;;;0.57;;
6203;SDS011;3135;42.602;23.468;2023-04-25T13:00:40;1.00;;;0.68;;
6203;SDS011;3135;42.602;23.468;2023-04-25T13:03:06;0.57;;;0.57;;
6203;SDS011;3135;42.602;23.468;2023-04-25T13:05:31;0.98;;;0.50;;
6203;SDS011;3135;42.602;23.468;2023-04-25T13:07:57;0.63;;;0.63;;
6203;SDS011;3135;42.602;23.468;2023-04-25T13:10:22;0.90;;;0.60;;
6203;SDS011;3135;42.602;23.468;2023-04-25T13:12:47;0.90;;;0.60;;
6203;SDS011;3135;42.602;23.468;2023-04-25T13:15:13;0.60;;;0.60;;
6203;SDS011;3135;42.602;23.468;2023-04-25T13:17:40;0.93;;;0.50;;
6203;SDS011;3135;42.602;23.468;2023-04-25T13:20:06;2.00;;;0.47;;
6203;SDS011;3135;42.602;23.468;2023-04-25T13:22:34;0.47;;;0.40;;
6203;SDS011;3135;42.602;23.468;2023-04-25T13:25:04;0.43;;;0.40;;
6203;SDS011;3135;42.602;23.468;2023-04-25T13:27:31;1.23;;;0.50;;
6203;SDS011;3135;42.602;23.468;2023-04-25T13:29:59;1.73;;;0.40;;
6203;SDS011;3135;42.602;23.468;2023-04-25T13:32:26;1.20;;;1.00;;
6203;SDS011;3135;42.602;23.468;2023-04-25T13:34:52;0.50;;;0.30;;
6203;SDS011;3135;42.602;23.468;2023-04-25T13:37:18;0.30;;;0.30;;
6203;SDS011;3135;42.602;23.468;2023-04-25T13:39:44;0.93;;;0.40;;
6203;SDS011;3135;42.602;23.468;2023-04-25T13:42:09;1.30;;;0.50;;
6203;SDS011;3135;42.602;23.468;2023-04-25T13:44:36;1.48;;;0.40;;
6203;SDS011;3135;42.602;23.468;2023-04-25T13:47:01;0.97;;;0.30;;
6203;SDS011;3135;42.602;23.468;2023-04-25T13:49:26;2.00;;;0.40;;
6203;SDS011;3135;42.602;23.468;2023-04-25T13:51:52;1.70;;;0.50;;
6203;SDS011;3135;42.602;23.468;2023-04-25T13:54:17;2.20;;;0.50;;
6203;SDS011;3135;42.602;23.468;2023-04-25T13:56:43;0.70;;;0.60;;
6203;SDS011;3135;42.602;23.468;2023-04-25T13:59:08;1.95;;;0.57;;
6203;SDS011;3135;42.602;23.468;2023-04-25T14:01:34;0.60;;;0.60;;
6203;SDS011;3135;42.602;23.468;2023-04-25T14:04:00;0.73;;;0.73;;
6203;SDS011;3135;42.602;23.468;2023-04-25T14:06:26;1.00;;;0.80;;
6203;SDS011;3135;42.602;23.468;2023-04-25T14:08:52;2.23;;;1.77;;
6203;SDS011;3135;42.602;23.468;2023-04-25T14:11:19;1.25;;;0.88;;
6203;SDS011;3135;42.602;23.468;2023-04-25T14:13:44;1.33;;;0.80;;
6203;SDS011;3135;42.602;23.468;2023-04-25T14:16:10;1.03;;;0.63;;
6203;SDS011;3135;42.602;23.468;2023-04-25T14:18:35;0.70;;;0.70;;
6203;SDS011;3135;42.602;23.468;2023-04-25T14:21:01;0.60;;;0.60;;
6203;SDS011;3135;42.602;23.468;2023-04-25T14:23:26;0.50;;;0.50;;
6203;SDS011;3135;42.602;23.468;2023-04-25T14:25:52;0.80;;;0.50;;
6203;SDS011;3135;42.602;23.468;2023-04-25T14:28:17;0.55;;;0.40;;
6203;SDS011;3135;42.602;23.468;2023-04-25T14:30:43;0.73;;;0.30;;
6203;SDS011;3135;42.602;23.468;2023-04-25T14:33:08;1.43;;;0.30;;
6203;SDS011;3135;42.602;23.468;2023-04-25T14:35:34;0.30;;;0.30;;
6203;SDS011;3135;42.602;23.468;2023-04-25T14:38:00;0.32;;;0.32;;
6203;SDS011;3135;42.602;23.468;2023-04-25T14:40:25;0.40;;;0.40;;
6203;SDS011;3135;42.602;23.468;2023-04-25T14:42:51;0.70;;;0.70;;
6203;SDS011;3135;42.602;23.468;2023-04-25T14:45:16;1.07;;;1.07;;
6203;SDS011;3135;42.602;23.468;2023-04-25T14:47:42;1.40;;;0.70;;
6203;SDS011;3135;42.602;23.468;2023-04-25T14:50:08;1.70;;;0.60;;
6203;SDS011;3135;42.602;23.468;2023-04-25T14:52:34;0.90;;;0.32;;
6203;SDS011;3135;42.602;23.468;2023-04-25T14:55:00;0.30;;;0.30;;
6203;SDS011;3135;42.602;23.468;2023-04-25T14:57:30;0.40;;;0.40;;
6203;SDS011;3135;42.602;23.468;2023-04-25T14:59:56;0.60;;;0.60;;
6203;SDS011;3135;42.602;23.468;2023-04-25T15:02:23;4.73;;;3.20;;
6203;SDS011;3135;42.602;23.468;2023-04-25T15:04:49;3.00;;;2.30;;
6203;SDS011;3135;42.602;23.468;2023-04-25T15:07:14;6.80;;;4.10;;
6203;SDS011;3135;42.602;23.468;2023-04-25T15:09:40;2.83;;;2.40;;
6203;SDS011;3135;42.602;23.468;2023-04-25T15:12:05;5.13;;;3.90;;
6203;SDS011;3135;42.602;23.468;2023-04-25T15:14:31;8.77;;;5.47;;
6203;SDS011;3135;42.602;23.468;2023-04-25T15:16:56;8.43;;;5.10;;
6203;SDS011;3135;42.602;23.468;2023-04-25T15:19:22;3.13;;;2.50;;
6203;SDS011;3135;42.602;23.468;2023-04-25T15:21:47;0.40;;;0.40;;
6203;SDS011;3135;42.602;23.468;2023-04-25T15:24:13;0.50;;;0.30;;
6203;SDS011;3135;42.602;23.468;2023-04-25T15:26:40;1.63;;;1.52;;
6203;SDS011;3135;42.602;23.468;2023-04-25T15:29:05;1.10;;;1.10;;
6203;SDS011;3135;42.602;23.468;2023-04-25T15:31:31;1.40;;;1.30;;
6203;SDS011;3135;42.602;23.468;2023-04-25T15:33:57;1.50;;;0.70;;
6203;SDS011;3135;42.602;23.468;2023-04-25T15:36:22;0.40;;;0.40;;